Time;durP1;ratioP1;P1;durP2;ratioP2;P2;SDS_P1;SDS_P2;PMS_P1;PMS_P2;Temp;Humidity;BMP_temperature;BMP_pressure;BME280_temperature;BME280_humidity;BME280_pressure;Samples;Min_cycle;Max_cycle;Signal;HPM_P1;HPM_P2
2022/06/22 00:00:11;;;;;;;4.75;3.05;;;16.60;15.90;;;;;;4985710;28;36199;-77
2022/06/22 00:02:42;;;;;;;6.03;2.90;;;16.60;16.00;;;;;;4986819;28;34146;-78
2022/06/22 00:05:18;;;;;;;2.78;2.58;;;16.50;16.50;;;;;;5002800;28;34262;-76
2022/06/22 00:07:51;;;;;;;4.88;2.97;;;16.50;17.10;;;;;;4986904;28;34560;-76
2022/06/22 00:10:29;;;;;;;3.58;3.28;;;16.40;16.60;;;;;;5002817;28;35521;-75
2022/06/22 00:12:57;;;;;;;4.45;3.17;;;16.40;16.80;;;;;;4986735;28;34531;-76
2022/06/22 00:15:36;;;;;;;5.75;3.63;;;16.40;16.10;;;;;;5003834;28;34150;-76
2022/06/22 00:18:19;;;;;;;3.88;3.20;;;16.40;17.40;;;;;;4986523;28;34327;-76
2022/06/22 00:20:51;;;;;;;3.30;2.90;;;16.30;16.20;;;;;;4988502;28;35509;-76
2022/06/22 00:23:27;;;;;;;3.13;2.80;;;16.30;16.60;;;;;;4986403;28;34465;-76
2022/06/22 00:25:58;;;;;;;3.45;3.15;;;16.20;16.90;;;;;;5002458;28;34222;-76
2022/06/22 00:28:32;;;;;;;4.05;2.90;;;16.20;16.10;;;;;;5002815;28;34562;-77
2022/06/22 00:31:03;;;;;;;8.27;2.90;;;16.10;16.40;;;;;;4985926;28;35665;-75
2022/06/22 00:33:29;;;;;;;6.30;3.20;;;16.10;16.40;;;;;;5003219;28;34071;-76
2022/06/22 00:36:13;;;;;;;4.32;3.08;;;16.00;16.30;;;;;;4986813;28;34320;-77
2022/06/22 00:38:42;;;;;;;3.83;2.53;;;16.00;18.50;;;;;;5003006;28;34330;-76
2022/06/22 00:41:24;;;;;;;6.13;2.67;;;16.00;16.40;;;;;;4986283;28;35608;-76
2022/06/22 00:43:52;;;;;;;4.03;2.78;;;16.00;18.30;;;;;;5003190;28;34247;-76
2022/06/22 00:46:21;;;;;;;3.53;3.20;;;15.90;16.50;;;;;;5002303;28;34179;-76
2022/06/22 00:48:51;;;;;;;6.43;3.53;;;15.80;16.50;;;;;;5002430;28;34159;-76
2022/06/22 00:51:21;;;;;;;3.38;3.08;;;15.80;16.60;;;;;;5004148;28;34403;-79
2022/06/22 00:53:55;;;;;;;3.60;3.00;;;15.80;16.90;;;;;;5002910;28;34124;-77
2022/06/22 00:56:44;;;;;;;7.38;3.00;;;15.80;17.30;;;;;;5003314;28;34659;-77
2022/06/22 00:59:22;;;;;;;5.30;3.13;;;15.70;18.00;;;;;;5003628;28;34248;-77
2022/06/22 01:02:10;;;;;;;4.13;2.65;;;15.70;17.80;;;;;;5001786;28;35616;-76
2022/06/22 01:04:46;;;;;;;4.65;3.08;;;15.60;18.30;;;;;;5003454;28;34344;-77
2022/06/22 01:07:24;;;;;;;3.35;3.05;;;15.60;17.00;;;;;;5002341;28;34206;-77
2022/06/22 01:10:04;;;;;;;5.93;3.10;;;15.60;18.00;;;;;;5002353;28;34520;-76
2022/06/22 01:12:40;;;;;;;3.97;2.80;;;15.50;18.00;;;;;;5005690;28;36133;-76
2022/06/22 01:15:22;;;;;;;3.40;3.10;;;15.50;17.10;;;;;;5006079;28;34083;-76
2022/06/22 01:18:16;;;;;;;4.78;3.47;;;15.50;17.60;;;;;;4988956;28;34300;-77
2022/06/22 01:21:07;;;;;;;3.70;3.08;;;15.50;18.60;;;;;;5005644;28;34287;-77
2022/06/22 01:23:59;;;;;;;3.80;2.80;;;15.50;19.40;;;;;;4992159;28;35817;-76
2022/06/22 01:26:45;;;;;;;3.50;3.17;;;15.50;18.10;;;;;;5005815;28;34143;-76
2022/06/22 01:29:21;;;;;;;4.40;3.10;;;15.50;18.00;;;;;;4990963;28;34123;-76
2022/06/22 01:32:06;;;;;;;3.75;3.28;;;15.50;17.70;;;;;;4989150;28;34421;-76
2022/06/22 01:34:39;;;;;;;3.80;3.38;;;15.40;18.90;;;;;;5010744;28;34478;-77
2022/06/22 01:37:11;;;;;;;5.88;2.75;;;15.40;17.10;;;;;;5025598;28;34132;-77
2022/06/22 01:39:37;;;;;;;4.95;3.00;;;15.40;17.10;;;;;;5025242;28;34118;-77
2022/06/22 01:42:21;;;;;;;4.03;3.05;;;15.40;17.10;;;;;;5024799;28;34105;-77
2022/06/22 01:45:05;;;;;;;3.20;2.90;;;15.40;18.40;;;;;;5021633;28;35639;-77
2022/06/22 01:47:52;;;;;;;6.80;3.22;;;15.30;19.10;;;;;;5025289;28;34178;-78
2022/06/22 01:50:32;;;;;;;3.50;3.20;;;15.30;19.20;;;;;;5026446;28;34157;-76
2022/06/22 01:53:19;;;;;;;5.75;3.03;;;15.30;18.70;;;;;;5024641;28;34442;-76
2022/06/22 01:59:14;;;;;;;3.67;3.13;;;15.20;18.70;;;;;;5025922;28;34594;-76
2022/06/22 02:02:08;;;;;;;5.90;2.92;;;15.20;19.20;;;;;;5025660;28;34382;-76
2022/06/22 02:05:01;;;;;;;3.40;3.00;;;15.20;18.70;;;;;;5024561;28;34466;-76
2022/06/22 02:07:44;;;;;;;3.40;3.00;;;15.20;19.50;;;;;;5024786;28;34267;-77
2022/06/22 02:10:23;;;;;;;3.28;2.58;;;15.20;18.10;;;;;;5024831;28;34253;-76
2022/06/22 02:13:15;;;;;;;3.20;2.90;;;15.10;18.10;;;;;;5024916;28;34306;-76
2022/06/22 02:15:51;;;;;;;3.35;3.05;;;15.10;18.40;;;;;;5005958;28;34142;-76
2022/06/22 02:18:26;;;;;;;4.70;3.13;;;15.10;18.10;;;;;;5005193;28;34681;-76
2022/06/22 02:20:53;;;;;;;3.38;2.95;;;15.20;18.00;;;;;;4988395;28;34274;-76
2022/06/22 02:23:25;;;;;;;7.85;3.10;;;15.10;17.60;;;;;;5002483;28;34188;-76
2022/06/22 02:26:14;;;;;;;7.43;3.20;;;15.10;18.00;;;;;;5024263;28;34093;-76
2022/06/22 02:28:41;;;;;;;6.88;3.10;;;15.10;18.00;;;;;;5011762;28;34347;-76
2022/06/22 02:31:07;;;;;;;3.47;3.17;;;15.10;17.60;;;;;;5024281;28;34072;-76
2022/06/22 02:33:35;;;;;;;3.30;3.00;;;15.00;17.70;;;;;;5023751;28;34114;-76
2022/06/22 02:36:04;;;;;;;5.43;2.97;;;15.00;17.90;;;;;;5024221;28;34150;-76
2022/06/22 02:38:30;;;;;;;9.63;3.45;;;15.10;17.90;;;;;;5023865;28;35514;-76
2022/06/22 02:46:24;;;;;;;3.60;3.10;;;15.00;17.90;;;;;;5024248;28;34120;-77
2022/06/22 02:48:56;;;;;;;4.93;3.25;;;15.00;18.00;;;;;;5007356;28;34221;-76
2022/06/22 02:51:28;;;;;;;7.38;3.10;;;15.00;18.30;;;;;;5007122;28;34293;-76
2022/06/22 02:53:57;;;;;;;4.32;3.47;;;15.00;18.40;;;;;;5025232;28;34215;-76
2022/06/22 02:56:35;;;;;;;3.47;3.00;;;15.00;18.00;;;;;;5007784;28;34457;-76
2022/06/22 02:59:02;;;;;;;4.03;3.30;;;14.90;18.10;;;;;;5004001;28;34192;-76
2022/06/22 03:01:31;;;;;;;3.13;2.72;;;14.90;18.00;;;;;;4996637;28;34114;-77
2022/06/22 03:04:02;;;;;;;7.68;3.05;;;14.90;18.20;;;;;;5006965;28;34141;-76
2022/06/22 03:06:33;;;;;;;4.20;3.03;;;14.90;18.30;;;;;;5007777;28;34381;-77
2022/06/22 03:09:04;;;;;;;4.22;3.00;;;14.90;18.60;;;;;;5006677;28;35679;-76
2022/06/22 03:11:33;;;;;;;3.10;2.80;;;14.90;18.50;;;;;;5023637;28;34078;-76
2022/06/22 03:14:29;;;;;;;3.80;3.40;;;14.80;18.10;;;;;;5022923;28;34556;-76
2022/06/22 03:17:11;;;;;;;4.75;3.20;;;14.90;19.50;;;;;;5023956;28;34046;-76
2022/06/22 03:19:46;;;;;;;4.90;3.08;;;14.90;19.30;;;;;;5024463;28;34157;-77
2022/06/22 03:22:29;;;;;;;4.13;3.15;;;14.90;18.60;;;;;;5006997;28;34224;-78
2022/06/22 03:25:13;;;;;;;4.43;3.25;;;14.90;20.00;;;;;;5007246;28;34293;-76
2022/06/22 03:27:45;;;;;;;4.45;3.42;;;14.80;19.70;;;;;;5006992;28;34102;-77
2022/06/22 03:30:19;;;;;;;3.47;3.15;;;14.90;18.40;;;;;;5007546;28;36410;-77
2022/06/22 03:32:54;;;;;;;2.97;2.78;;;14.90;18.80;;;;;;5024910;28;34085;-77
2022/06/22 03:35:31;;;;;;;4.20;2.85;;;14.90;18.90;;;;;;5006760;28;34049;-76
2022/06/22 03:38:15;;;;;;;6.35;3.25;;;14.80;18.80;;;;;;5023206;28;34553;-77
2022/06/22 03:40:45;;;;;;;3.17;2.80;;;14.90;18.70;;;;;;5023176;28;35520;-76
2022/06/22 03:43:17;;;;;;;4.50;2.85;;;14.90;18.50;;;;;;5023019;28;34272;-77
2022/06/22 03:45:51;;;;;;;3.50;3.10;;;14.90;18.40;;;;;;5022683;28;34200;-77
2022/06/22 03:48:32;;;;;;;3.60;3.10;;;14.90;18.90;;;;;;5023329;28;34276;-77
2022/06/22 03:51:23;;;;;;;3.50;3.08;;;14.90;19.40;;;;;;5022467;28;35726;-76
2022/06/22 03:54:08;;;;;;;4.70;3.00;;;14.80;19.00;;;;;;5024280;28;34182;-76
2022/06/22 03:56:38;;;;;;;5.13;3.15;;;14.90;18.70;;;;;;5022376;28;34192;-76
2022/06/22 03:59:06;;;;;;;5.15;3.20;;;14.90;18.60;;;;;;5022189;28;34321;-77
2022/06/22 04:01:32;;;;;;;3.92;3.08;;;14.90;18.50;;;;;;5022801;28;36057;-77
2022/06/22 04:03:59;;;;;;;4.45;3.10;;;14.90;18.50;;;;;;5022631;28;34233;-77
2022/06/22 04:06:32;;;;;;;3.95;3.38;;;14.90;18.60;;;;;;5023066;28;34240;-77
2022/06/22 04:09:04;;;;;;;4.68;3.33;;;14.90;18.90;;;;;;5023796;28;34343;-77
2022/06/22 04:11:40;;;;;;;3.55;3.13;;;14.90;18.60;;;;;;5022708;28;36110;-76
2022/06/22 04:14:16;;;;;;;3.38;3.08;;;15.00;19.50;;;;;;5023157;28;34095;-77
2022/06/22 04:16:52;;;;;;;3.50;2.95;;;15.00;19.40;;;;;;5023889;28;34183;-77
2022/06/22 04:19:24;;;;;;;6.28;3.60;;;15.10;19.40;;;;;;5022462;28;34031;-77
2022/06/22 04:21:59;;;;;;;4.85;3.28;;;15.20;18.90;;;;;;5022439;28;35591;-77
2022/06/22 04:24:32;;;;;;;10.00;3.22;;;15.30;18.90;;;;;;5022615;28;34160;-76
2022/06/22 04:27:12;;;;;;;4.18;3.10;;;15.30;18.70;;;;;;5006311;28;34196;-77
2022/06/22 04:29:52;;;;;;;4.05;3.53;;;15.30;19.20;;;;;;4986468;28;34507;-77
2022/06/22 04:32:23;;;;;;;3.30;3.00;;;15.30;18.70;;;;;;5003718;28;35648;-77
2022/06/22 04:35:22;;;;;;;3.30;2.75;;;15.40;18.60;;;;;;5021736;28;33806;-77
2022/06/22 04:37:55;;;;;;;4.97;3.20;;;15.40;20.60;;;;;;5021828;28;34197;-78
2022/06/22 04:40:30;;;;;;;3.17;2.88;;;15.50;18.90;;;;;;5005782;28;34410;-77
2022/06/22 04:43:02;;;;;;;3.90;3.50;;;15.50;18.70;;;;;;5005530;28;35515;-77
2022/06/22 04:45:31;;;;;;;3.88;3.38;;;15.60;19.00;;;;;;5004859;28;34085;-77
2022/06/22 04:48:04;;;;;;;3.97;3.17;;;15.60;18.70;;;;;;5005539;28;34230;-77
2022/06/22 04:50:30;;;;;;;4.18;3.17;;;15.70;19.10;;;;;;5021974;28;34094;-77
2022/06/22 04:52:59;;;;;;;6.22;3.45;;;15.70;18.70;;;;;;5022003;28;35740;-77
2022/06/22 04:55:26;;;;;;;6.30;2.80;;;15.90;18.80;;;;;;5022301;28;34114;-78
2022/06/22 04:57:56;;;;;;;5.07;3.70;;;15.90;18.70;;;;;;5022070;28;34146;-77
2022/06/22 05:00:26;;;;;;;8.45;3.45;;;16.00;18.70;;;;;;5023497;28;34319;-77
2022/06/22 05:03:00;;;;;;;3.65;3.20;;;16.00;18.80;;;;;;5005241;28;35587;-77
2022/06/22 05:05:30;;;;;;;5.70;3.08;;;16.10;19.00;;;;;;5005468;28;34114;-76
2022/06/22 05:08:13;;;;;;;4.03;3.00;;;16.20;18.70;;;;;;5022324;28;34189;-77
2022/06/22 05:11:05;;;;;;;3.60;3.30;;;16.30;19.60;;;;;;5005220;28;34574;-77
2022/06/22 05:13:34;;;;;;;7.28;3.50;;;16.40;19.80;;;;;;5005524;28;35516;-77
2022/06/22 05:16:04;;;;;;;4.95;3.20;;;16.40;18.20;;;;;;5023068;28;34080;-77
2022/06/22 05:18:34;;;;;;;6.93;3.55;;;16.50;18.30;;;;;;5022200;28;34249;-77
2022/06/22 05:21:11;;;;;;;5.38;3.33;;;16.60;18.40;;;;;;5022190;28;34118;-77
2022/06/22 05:23:40;;;;;;;5.03;3.42;;;16.70;18.80;;;;;;5021921;28;34345;-77
2022/06/22 05:26:09;;;;;;;5.85;3.38;;;16.80;18.10;;;;;;5022117;28;34094;-77
2022/06/22 05:28:43;;;;;;;6.45;3.40;;;16.90;18.20;;;;;;5005678;28;34068;-77
2022/06/22 05:31:17;;;;;;;3.90;2.88;;;17.00;18.50;;;;;;5023143;28;34100;-77
2022/06/22 05:33:48;;;;;;;4.78;3.15;;;17.10;18.20;;;;;;5021207;28;35888;-77
2022/06/22 05:36:18;;;;;;;6.22;3.80;;;17.30;18.00;;;;;;5021322;28;34415;-77
2022/06/22 05:38:48;;;;;;;4.20;3.13;;;17.50;17.60;;;;;;5022882;28;34379;-77
2022/06/22 05:41:18;;;;;;;3.30;2.95;;;17.70;17.80;;;;;;5005448;28;34149;-77
2022/06/22 05:43:45;;;;;;;3.63;3.15;;;17.90;17.30;;;;;;5002422;28;36387;-78
2022/06/22 05:46:13;;;;;;;3.33;3.03;;;18.10;16.90;;;;;;4999341;28;34221;-77
2022/06/22 05:48:49;;;;;;;3.83;3.00;;;18.40;16.60;;;;;;5005755;28;34608;-77
2022/06/22 05:51:36;;;;;;;5.15;2.92;;;18.70;16.70;;;;;;5005575;28;34234;-77
2022/06/22 05:54:14;;;;;;;4.45;2.85;;;18.90;16.00;;;;;;5023086;28;34233;-79
2022/06/22 05:56:46;;;;;;;7.35;3.15;;;19.20;15.90;;;;;;5002647;28;34157;-77
2022/06/22 05:59:22;;;;;;;5.28;3.33;;;19.50;15.10;;;;;;5024697;28;34296;-77
2022/06/22 06:01:57;;;;;;;3.28;2.72;;;20.10;14.30;;;;;;5024992;28;34582;-78
2022/06/22 06:04:33;;;;;;;5.07;2.75;;;20.60;14.00;;;;;;5025528;28;35889;-78
2022/06/22 06:07:16;;;;;;;3.53;2.45;;;21.20;11.40;;;;;;5025314;28;33835;-77
2022/06/22 06:09:42;;;;;;;4.43;2.88;;;21.80;11.10;;;;;;5023242;28;34101;-78
2022/06/22 06:12:15;;;;;;;2.60;2.40;;;22.50;10.40;;;;;;5025176;28;34494;-77
2022/06/22 06:14:45;;;;;;;4.30;2.45;;;23.30;7.20;;;;;;5025536;28;36724;-77
2022/06/22 06:17:18;;;;;;;3.00;2.40;;;23.90;8.10;;;;;;5024938;28;34377;-77
2022/06/22 06:19:50;;;;;;;4.93;2.47;;;24.40;6.80;;;;;;5025125;28;34365;-77
2022/06/22 06:22:16;;;;;;;4.07;2.45;;;25.00;5.30;;;;;;5025456;28;34477;-79
2022/06/22 06:27:35;;;;;;;2.40;2.20;;;25.10;3.50;;;;;;5025062;28;34184;-79
2022/06/22 06:30:32;;;;;;;3.42;2.20;;;24.80;5.50;;;;;;5024375;28;34359;-78
2022/06/22 06:33:12;;;;;;;2.47;2.05;;;24.70;3.00;;;;;;5024818;28;34042;-78
2022/06/22 06:35:48;;;;;;;2.38;2.03;;;24.50;3.30;;;;;;5024641;28;36352;-78
2022/06/22 06:38:34;;;;;;;1.98;1.88;;;24.50;5.10;;;;;;5025160;28;34708;-78
2022/06/22 06:41:15;;;;;;;3.25;2.17;;;24.90;2.80;;;;;;5024907;28;34688;-78
2022/06/22 06:44:05;;;;;;;2.45;2.08;;;25.40;2.00;;;;;;5006357;28;34115;-78
2022/06/22 06:46:45;;;;;;;3.72;2.08;;;25.90;3.20;;;;;;5006377;28;36012;-80
2022/06/22 06:49:29;;;;;;;2.25;2.05;;;26.50;2.20;;;;;;5005893;28;34183;-79
2022/06/22 06:52:01;;;;;;;2.80;2.00;;;27.00;1.00;;;;;;5008897;28;34274;-78
2022/06/22 06:54:37;;;;;;;4.05;1.58;;;27.40;1.80;;;;;;5009013;28;34062;-78
2022/06/22 06:57:09;;;;;;;3.25;2.00;;;27.80;1.00;;;;;;5014199;28;35853;-78
2022/06/22 06:59:36;;;;;;;3.78;2.10;;;28.10;1.00;;;;;;5026682;28;34229;-80
2022/06/22 07:02:14;;;;;;;4.10;1.88;;;28.30;1.00;;;;;;5010982;28;34390;-78
2022/06/22 07:04:40;;;;;;;1.88;1.77;;;28.70;1.00;;;;;;5008549;28;34476;-79
2022/06/22 07:07:36;;;;;;;2.58;1.70;;;28.90;1.00;;;;;;5025568;28;35564;-78
2022/06/22 07:10:18;;;;;;;1.52;1.42;;;29.40;1.00;;;;;;5008030;28;34215;-78
2022/06/22 07:12:52;;;;;;;4.03;2.00;;;29.60;1.00;;;;;;4993982;28;34256;-77
2022/06/22 07:15:22;;;;;;;2.83;1.77;;;29.80;1.00;;;;;;5007509;28;34543;-77
2022/06/22 07:17:53;;;;;;;2.47;1.45;;;29.80;1.00;;;;;;5003410;28;35969;-77
2022/06/22 07:20:28;;;;;;;2.20;1.60;;;29.90;1.00;;;;;;5020415;28;35211;-79
2022/06/22 07:23:02;;;;;;;3.58;1.75;;;29.90;1.00;;;;;;5022842;28;34157;-76
2022/06/22 07:25:38;;;;;;;3.85;1.55;;;30.00;1.00;;;;;;5007179;28;34634;-76
2022/06/22 07:28:17;;;;;;;4.10;2.08;;;30.10;1.00;;;;;;5023060;28;36250;-75
2022/06/22 07:30:51;;;;;;;1.75;1.60;;;30.30;1.00;;;;;;5023829;28;34399;-79
2022/06/22 07:33:25;;;;;;;5.10;1.92;;;30.20;1.00;;;;;;5008227;28;34255;-75
2022/06/22 07:36:13;;;;;;;1.63;1.40;;;29.90;1.00;;;;;;5025365;28;34176;-76
2022/06/22 07:39:08;;;;;;;3.35;1.40;;;29.90;1.00;;;;;;5022047;28;35486;-77
2022/06/22 07:41:35;;;;;;;2.30;1.30;;;29.80;1.00;;;;;;5024562;28;34145;-76
2022/06/22 07:44:06;;;;;;;3.00;1.65;;;29.70;1.00;;;;;;5024544;28;34206;-76
2022/06/22 07:46:50;;;;;;;2.75;1.50;;;29.80;1.00;;;;;;5007800;28;34160;-75
2022/06/22 07:49:23;;;;;;;2.42;1.25;;;29.90;1.00;;;;;;5023654;28;36010;-76
2022/06/22 07:51:54;;;;;;;1.65;1.40;;;30.00;1.00;;;;;;5008582;28;34460;-76
2022/06/22 07:54:28;;;;;;;1.92;1.50;;;30.00;1.00;;;;;;5023944;28;34204;-75
2022/06/22 07:57:25;;;;;;;4.30;1.38;;;29.90;1.00;;;;;;5024795;28;34093;-76
2022/06/22 07:59:56;;;;;;;4.43;1.35;;;30.10;1.00;;;;;;5003816;28;35679;-78
2022/06/22 08:02:27;;;;;;;1.40;1.30;;;30.10;1.00;;;;;;4988552;28;34187;-78
2022/06/22 08:05:01;;;;;;;1.52;1.40;;;30.10;1.00;;;;;;5006249;28;34352;-77
2022/06/22 08:07:41;;;;;;;1.92;1.42;;;30.00;1.00;;;;;;5008141;28;34579;-81
2022/06/22 08:10:23;;;;;;;3.45;1.75;;;30.00;1.00;;;;;;5011699;28;34113;-81
2022/06/22 08:13:03;;;;;;;4.00;1.45;;;29.90;1.00;;;;;;5023912;28;34062;-79
2022/06/22 08:15:36;;;;;;;2.00;1.27;;;30.00;1.00;;;;;;5027144;28;34295;-79
2022/06/22 08:18:02;;;;;;;1.90;1.35;;;30.00;1.00;;;;;;5026958;28;34097;-79
2022/06/22 08:20:33;;;;;;;3.17;1.50;;;30.00;1.00;;;;;;5005863;28;35530;-78
2022/06/22 08:23:04;;;;;;;2.97;1.63;;;30.20;1.00;;;;;;5026551;28;34062;-79
2022/06/22 08:25:32;;;;;;;1.45;1.33;;;30.30;1.00;;;;;;5027810;28;34127;-80
2022/06/22 08:28:00;;;;;;;1.15;1.10;;;30.30;1.00;;;;;;5014642;28;34274;-81
2022/06/22 08:30:26;;;;;;;1.67;1.40;;;30.40;1.00;;;;;;5007598;28;35513;-77
2022/06/22 08:33:04;;;;;;;5.22;1.52;;;30.50;1.00;;;;;;5006863;28;34126;-79
2022/06/22 08:35:37;;;;;;;3.05;1.40;;;30.70;1.00;;;;;;5005482;28;34165;-77
2022/06/22 08:38:24;;;;;;;2.70;1.50;;;30.80;1.00;;;;;;5025451;28;34267;-77
2022/06/22 08:41:16;;;;;;;3.72;1.48;;;30.90;1.00;;;;;;5024912;28;34498;-76
2022/06/22 08:43:56;;;;;;;2.28;1.50;;;31.00;1.00;;;;;;5024419;28;34225;-77
2022/06/22 08:46:53;;;;;;;4.35;2.63;;;31.10;1.00;;;;;;5024942;28;34014;-77
2022/06/22 08:49:41;;;;;;;3.67;1.48;;;31.30;1.00;;;;;;5021807;28;34072;-76
2022/06/22 08:52:25;;;;;;;1.45;1.35;;;31.50;1.00;;;;;;5023047;28;36352;-77
2022/06/22 08:55:19;;;;;;;2.10;1.27;;;31.30;1.00;;;;;;5007585;28;34224;-75
2022/06/22 08:58:03;;;;;;;1.73;1.30;;;31.10;1.00;;;;;;5008061;28;34582;-76
2022/06/22 09:00:40;;;;;;;3.38;1.40;;;30.90;1.00;;;;;;4993812;28;34004;-75
2022/06/22 09:03:35;;;;;;;1.60;1.50;;;30.70;1.00;;;;;;5039780;28;35685;-76
2022/06/22 09:06:27;;;;;;;2.05;1.40;;;30.50;1.00;;;;;;5038975;28;34236;-75
2022/06/22 09:09:28;;;;;;;2.25;1.40;;;30.40;1.00;;;;;;5012313;28;34261;-78
2022/06/22 09:12:29;;;;;;;2.20;1.38;;;30.50;1.00;;;;;;4975669;28;34163;-80
2022/06/22 09:15:16;;;;;;;1.67;1.55;;;30.50;1.00;;;;;;4989018;28;35620;-78
2022/06/22 09:18:13;;;;;;;1.50;1.40;;;30.40;1.00;;;;;;5004807;28;34492;-76
2022/06/22 09:21:05;;;;;;;1.40;1.30;;;30.30;1.00;;;;;;5004349;28;34206;-76
2022/06/22 09:23:40;;;;;;;1.25;1.15;;;30.10;1.00;;;;;;5003240;28;34144;-77
2022/06/22 09:26:27;;;;;;;2.05;1.63;;;30.10;1.00;;;;;;5021350;28;34904;-76
2022/06/22 09:28:59;;;;;;;1.88;1.50;;;29.90;1.00;;;;;;5007600;28;34239;-76
2022/06/22 09:31:55;;;;;;;3.00;1.40;;;29.80;1.00;;;;;;5023669;28;34422;-76
2022/06/22 09:34:41;;;;;;;1.30;1.20;;;29.70;1.00;;;;;;5027533;28;34489;-75
2022/06/22 09:37:28;;;;;;;1.50;1.40;;;29.60;1.00;;;;;;5041908;28;34172;-75
2022/06/22 09:40:15;;;;;;;2.28;1.42;;;29.40;1.00;;;;;;5046204;28;34407;-76
2022/06/22 09:43:04;;;;;;;4.10;1.40;;;29.40;1.00;;;;;;5041604;28;34348;-75
2022/06/22 09:46:00;;;;;;;1.70;1.30;;;29.30;1.00;;;;;;5011389;28;34375;-76
2022/06/22 09:48:49;;;;;;;1.48;1.38;;;29.30;1.00;;;;;;5025872;28;34331;-76
2022/06/22 09:51:42;;;;;;;1.75;1.60;;;29.10;1.00;;;;;;5008675;28;34321;-76
2022/06/22 09:57:49;;;;;;;3.30;1.42;;;29.00;1.00;;;;;;5013422;28;34247;-76
2022/06/22 10:00:20;;;;;;;3.83;1.70;;;28.90;1.00;;;;;;5012505;28;36308;-76
2022/06/22 10:03:06;;;;;;;1.90;1.48;;;28.80;1.00;;;;;;5027183;28;34265;-76
2022/06/22 10:06:02;;;;;;;2.65;1.40;;;28.80;1.00;;;;;;5026646;28;34390;-74
2022/06/22 10:08:49;;;;;;;3.67;1.70;;;28.80;1.00;;;;;;5027590;28;34252;-75
2022/06/22 10:11:28;;;;;;;2.72;1.40;;;28.90;1.00;;;;;;5023125;28;36020;-76
2022/06/22 10:14:23;;;;;;;2.58;1.63;;;29.20;1.00;;;;;;5010308;28;34344;-76
2022/06/22 10:17:06;;;;;;;1.58;1.35;;;29.40;1.00;;;;;;5012232;28;34302;-75
2022/06/22 10:20:14;;;;;;;2.90;1.35;;;29.60;1.00;;;;;;5008791;28;34463;-76
2022/06/22 10:22:58;;;;;;;2.95;1.63;;;29.70;1.00;;;;;;4993281;28;34246;-75
2022/06/22 10:25:42;;;;;;;3.15;1.58;;;29.90;1.00;;;;;;5006013;28;34428;-75
2022/06/22 10:28:35;;;;;;;2.13;1.70;;;30.10;1.00;;;;;;5005690;28;34217;-74
2022/06/22 10:31:34;;;;;;;1.98;1.50;;;30.20;1.00;;;;;;5005426;28;34229;-75
2022/06/22 10:34:17;;;;;;;2.00;1.80;;;30.30;1.00;;;;;;5004862;28;35857;-76
2022/06/22 10:37:11;;;;;;;4.20;1.60;;;30.20;1.00;;;;;;5006642;28;34133;-75
2022/06/22 10:40:03;;;;;;;1.48;1.38;;;29.90;1.00;;;;;;5005330;28;34237;-77
2022/06/22 10:45:56;;;;;;;2.25;1.55;;;29.60;1.00;;;;;;4992887;28;34772;-74
2022/06/22 10:48:50;;;;;;;3.30;1.70;;;29.50;1.00;;;;;;5006876;28;34225;-75
2022/06/22 10:51:33;;;;;;;3.03;1.42;;;29.70;1.00;;;;;;5007483;28;34367;-76
2022/06/22 10:54:22;;;;;;;2.05;1.40;;;29.60;1.00;;;;;;5021891;28;34087;-75
2022/06/22 10:57:17;;;;;;;5.57;1.67;;;29.70;1.00;;;;;;5021797;28;35769;-76
2022/06/22 11:00:20;;;;;;;4.28;1.60;;;29.70;1.00;;;;;;4992300;28;33707;-74
2022/06/22 11:03:17;;;;;;;1.60;1.50;;;29.80;1.00;;;;;;5005169;28;34325;-75
2022/06/22 11:05:53;;;;;;;3.17;1.85;;;29.90;1.00;;;;;;5006766;28;34231;-78
2022/06/22 11:08:41;;;;;;;3.10;1.52;;;29.90;1.00;;;;;;4988751;28;36370;-75
2022/06/22 11:11:21;;;;;;;3.35;1.70;;;30.10;1.00;;;;;;5005759;28;34119;-76
2022/06/22 11:14:18;;;;;;;1.73;1.40;;;30.20;1.00;;;;;;4989086;28;34140;-75
2022/06/22 11:17:14;;;;;;;2.75;1.80;;;30.50;1.00;;;;;;4988537;28;34220;-75
2022/06/22 11:20:06;;;;;;;2.13;1.63;;;30.70;1.00;;;;;;5022064;28;35550;-77
2022/06/22 11:22:42;;;;;;;4.22;2.00;;;31.00;1.00;;;;;;5025369;28;34509;-76
2022/06/22 11:31:52;;;;;;;5.30;1.70;;;31.40;1.00;;;;;;5019912;28;34864;-76
2022/06/22 11:34:52;;;;;;;2.88;1.90;;;31.50;1.00;;;;;;5006732;28;34304;-76
2022/06/22 11:37:47;;;;;;;1.90;1.70;;;31.60;1.00;;;;;;5040858;28;34082;-76
2022/06/22 11:40:43;;;;;;;1.65;1.55;;;31.60;1.00;;;;;;5007456;28;34461;-76
2022/06/22 11:43:34;;;;;;;6.85;1.77;;;31.70;1.00;;;;;;5006386;28;36502;-76
2022/06/22 11:46:20;;;;;;;3.13;2.00;;;31.60;1.00;;;;;;5007204;28;34182;-75
2022/06/22 11:49:14;;;;;;;2.38;1.60;;;31.60;1.00;;;;;;5007674;28;34142;-76
2022/06/22 11:52:09;;;;;;;2.00;1.70;;;31.60;1.00;;;;;;5025709;28;34079;-77
2022/06/22 11:55:10;;;;;;;2.25;1.65;;;31.50;1.00;;;;;;5006100;28;36427;-77
2022/06/22 11:58:03;;;;;;;2.67;1.70;;;31.50;1.00;;;;;;5007618;28;34390;-78
2022/06/22 12:00:50;;;;;;;2.83;2.00;;;31.50;1.00;;;;;;5008167;28;34191;-75
2022/06/22 12:03:43;;;;;;;1.80;1.70;;;31.50;1.00;;;;;;5008414;28;34272;-76
2022/06/22 12:06:30;;;;;;;5.03;2.00;;;31.60;1.00;;;;;;5007938;28;35771;-75
2022/06/22 12:09:19;;;;;;;2.28;1.80;;;31.70;1.00;;;;;;5010538;28;34175;-75
2022/06/22 12:12:15;;;;;;;3.20;1.70;;;31.90;1.00;;;;;;5008317;28;34229;-77
2022/06/22 12:15:07;;;;;;;1.60;1.50;;;32.10;1.00;;;;;;5007879;28;34071;-77
2022/06/22 12:18:04;;;;;;;1.70;1.45;;;32.20;1.00;;;;;;5024500;28;35870;-77
2022/06/22 12:20:44;;;;;;;4.47;2.00;;;32.40;1.00;;;;;;5007139;28;34202;-77
2022/06/22 12:23:39;;;;;;;2.72;1.90;;;32.60;1.00;;;;;;5023628;28;34335;-76
2022/06/22 12:26:26;;;;;;;2.10;1.90;;;32.70;1.00;;;;;;5000842;28;34231;-75
2022/06/22 12:29:23;;;;;;;3.38;2.17;;;33.00;1.00;;;;;;5024791;28;35499;-75
2022/06/22 12:31:57;;;;;;;1.70;1.60;;;33.20;1.00;;;;;;5023746;28;34251;-76
2022/06/22 12:34:35;;;;;;;2.63;1.77;;;33.30;1.00;;;;;;5023425;28;34173;-78
2022/06/22 12:37:08;;;;;;;4.28;2.15;;;33.20;1.00;;;;;;5023307;28;34137;-78
2022/06/22 12:39:48;;;;;;;4.20;1.85;;;33.00;1.00;;;;;;5040436;28;36694;-78
2022/06/22 12:42:49;;;;;;;4.43;2.00;;;32.70;1.00;;;;;;5039719;28;34222;-76
2022/06/22 12:45:34;;;;;;;3.05;2.10;;;32.70;1.00;;;;;;5028408;28;34070;-77
2022/06/22 12:48:26;;;;;;;4.18;2.38;;;32.40;1.00;;;;;;5039757;28;34131;-76
2022/06/22 12:51:17;;;;;;;5.07;2.00;;;32.20;1.00;;;;;;5003786;28;35960;-76
2022/06/22 12:54:03;;;;;;;2.40;2.15;;;32.10;1.00;;;;;;5011454;28;34420;-77
2022/06/22 12:56:39;;;;;;;3.67;2.00;;;32.10;1.00;;;;;;5004972;28;34158;-76
2022/06/22 12:59:13;;;;;;;6.40;2.55;;;32.10;1.00;;;;;;5003678;28;34126;-77
2022/06/22 13:01:39;;;;;;;3.40;2.30;;;32.00;1.00;;;;;;5003885;28;35813;-76
2022/06/22 13:04:11;;;;;;;2.08;1.98;;;31.90;1.00;;;;;;5004225;28;34281;-77
2022/06/22 13:06:44;;;;;;;2.33;1.98;;;31.70;1.00;;;;;;5004501;28;34146;-77
2022/06/22 13:09:10;;;;;;;2.60;2.17;;;31.70;1.00;;;;;;4991711;28;34216;-77
2022/06/22 13:11:37;;;;;;;4.75;2.35;;;31.60;1.00;;;;;;5006390;28;36157;-76
2022/06/22 13:14:20;;;;;;;2.90;2.25;;;31.50;1.00;;;;;;4990589;28;34233;-76
2022/06/22 13:17:00;;;;;;;3.42;2.10;;;31.40;1.00;;;;;;5010820;28;34206;-76
2022/06/22 13:19:47;;;;;;;7.45;3.00;;;31.30;1.00;;;;;;5043445;28;34690;-76
2022/06/22 13:22:44;;;;;;;4.57;2.25;;;31.30;1.00;;;;;;5043605;28;35927;-76
2022/06/22 13:25:33;;;;;;;2.30;2.10;;;31.20;1.00;;;;;;5042773;28;34188;-76
2022/06/22 13:28:17;;;;;;;6.15;2.42;;;31.00;1.00;;;;;;5042788;28;34190;-76
2022/06/22 13:30:55;;;;;;;4.30;2.20;;;30.90;1.00;;;;;;5027591;28;34193;-76
2022/06/22 13:33:38;;;;;;;2.40;2.20;;;30.70;1.00;;;;;;5026268;28;35827;-76
2022/06/22 13:36:14;;;;;;;2.88;1.83;;;30.60;1.00;;;;;;5027713;28;34303;-75
2022/06/22 13:39:03;;;;;;;3.50;1.80;;;30.50;1.00;;;;;;5027235;28;34220;-76
2022/06/22 13:41:56;;;;;;;2.30;2.10;;;30.40;1.00;;;;;;5028532;28;34270;-76
2022/06/22 13:44:43;;;;;;;4.47;1.80;;;30.20;1.00;;;;;;5028690;28;34283;-76
2022/06/22 13:47:42;;;;;;;3.20;2.30;;;30.10;1.00;;;;;;5026324;28;34169;-76
2022/06/22 13:50:52;;;;;;;2.63;2.20;;;30.00;1.00;;;;;;5014965;28;34360;-77
2022/06/22 13:53:53;;;;;;;2.10;1.73;;;29.90;1.00;;;;;;5006886;28;34194;-77
2022/06/22 13:56:45;;;;;;;2.08;1.88;;;29.80;1.00;;;;;;5006727;28;36770;-76
2022/06/22 13:59:23;;;;;;;2.45;2.08;;;29.60;1.00;;;;;;5007182;28;34302;-77
2022/06/22 14:01:58;;;;;;;2.30;2.10;;;29.60;1.00;;;;;;5012795;28;34136;-76
2022/06/22 14:04:37;;;;;;;2.67;2.40;;;29.40;1.00;;;;;;5004635;28;34351;-76
2022/06/22 14:07:13;;;;;;;2.33;2.10;;;29.30;1.00;;;;;;4982219;28;36279;-76
2022/06/22 14:09:49;;;;;;;2.65;1.92;;;29.20;1.00;;;;;;4990941;28;34169;-76
2022/06/22 14:12:26;;;;;;;3.53;2.10;;;29.10;1.00;;;;;;5019655;28;34105;-76
2022/06/22 14:15:20;;;;;;;2.35;1.58;;;29.00;1.00;;;;;;5007804;28;34414;-76
2022/06/22 14:17:54;;;;;;;5.00;2.10;;;29.00;1.00;;;;;;5005893;28;36004;-75
2022/06/22 14:20:45;;;;;;;4.35;1.90;;;28.90;1.00;;;;;;5010378;28;34437;-76
2022/06/22 14:23:17;;;;;;;4.85;2.40;;;28.90;1.00;;;;;;5014510;28;34330;-76